Time;durP1;ratioP1;P1;durP2;ratioP2;P2;SDS_P1;SDS_P2;PMS_P1;PMS_P2;Temp;Humidity;BMP_temperature;BMP_pressure;BME280_temperature;BME280_humidity;BME280_pressure;Samples;Min_cycle;Max_cycle;Signal;HPM_P1;HPM_P2
2022/07/17 00:01:06;;;;;;;4.60;3.30;;;19.50;99.90;;;;;;5115933;28;20276;-74
2022/07/17 00:03:33;;;;;;;4.67;3.83;;;19.30;99.90;;;;;;5116281;28;20252;-75
2022/07/17 00:06:00;;;;;;;5.17;3.93;;;19.20;99.90;;;;;;5116193;28;20594;-76
2022/07/17 00:08:27;;;;;;;7.83;3.80;;;19.20;99.90;;;;;;5116244;28;20240;-75
2022/07/17 00:10:54;;;;;;;8.27;3.40;;;19.20;99.90;;;;;;5115997;28;20277;-75
2022/07/17 00:13:20;;;;;;;4.37;3.30;;;19.10;99.90;;;;;;5116143;28;20237;-75
2022/07/17 00:15:47;;;;;;;3.93;3.20;;;19.10;99.90;;;;;;5116077;28;20248;-75
2022/07/17 00:18:16;;;;;;;4.40;3.73;;;19.10;99.90;;;;;;5116378;28;20237;-75
2022/07/17 00:20:43;;;;;;;6.80;3.63;;;19.00;99.90;;;;;;5116004;28;20294;-75
2022/07/17 00:23:10;;;;;;;4.47;3.57;;;19.00;99.90;;;;;;5116068;28;20202;-74
2022/07/17 00:25:37;;;;;;;6.43;3.40;;;19.00;99.90;;;;;;5115344;28;20236;-75
2022/07/17 00:28:06;;;;;;;9.53;3.60;;;19.00;99.90;;;;;;5115923;28;20248;-75
2022/07/17 00:30:33;;;;;;;5.00;3.63;;;18.80;99.90;;;;;;5115647;28;20277;-75
2022/07/17 00:33:00;;;;;;;7.20;3.37;;;18.80;99.90;;;;;;5114937;28;20233;-76
2022/07/17 00:35:28;;;;;;;9.47;3.53;;;18.80;99.90;;;;;;5115019;28;20225;-75
2022/07/17 00:37:55;;;;;;;9.77;3.83;;;18.80;99.90;;;;;;5115369;28;20233;-76
2022/07/17 00:40:24;;;;;;;7.13;3.70;;;18.70;99.90;;;;;;5115224;28;20221;-75
2022/07/17 00:42:52;;;;;;;5.07;3.57;;;18.70;99.90;;;;;;5115761;28;20193;-75
2022/07/17 00:45:24;;;;;;;5.67;3.40;;;18.70;99.90;;;;;;5115365;28;20229;-75
2022/07/17 00:47:55;;;;;;;4.67;3.37;;;18.70;99.90;;;;;;5115610;28;20247;-75
2022/07/17 00:50:23;;;;;;;3.30;3.00;;;18.60;99.90;;;;;;5115313;28;20253;-76
2022/07/17 00:52:51;;;;;;;6.93;3.77;;;18.60;99.90;;;;;;5114942;28;20272;-76
2022/07/17 00:55:19;;;;;;;6.20;3.73;;;18.60;99.90;;;;;;5114610;28;20285;-76
2022/07/17 00:57:48;;;;;;;5.37;3.00;;;18.60;99.90;;;;;;5114778;28;20642;-75
2022/07/17 01:00:16;;;;;;;6.53;3.17;;;18.60;99.90;;;;;;5114704;28;20265;-75
2022/07/17 01:02:47;;;;;;;4.80;3.33;;;18.60;99.90;;;;;;5112455;28;20292;-75
2022/07/17 01:05:14;;;;;;;3.60;3.30;;;18.60;99.90;;;;;;5114701;27;20197;-75
2022/07/17 01:07:40;;;;;;;6.03;3.47;;;18.50;99.90;;;;;;5114917;28;20233;-74
2022/07/17 01:10:10;;;;;;;4.90;3.20;;;18.50;99.90;;;;;;5114644;28;20233;-75
2022/07/17 01:12:37;;;;;;;6.57;3.10;;;18.50;99.90;;;;;;5115149;28;20204;-75
2022/07/17 01:15:05;;;;;;;4.83;3.27;;;18.40;99.90;;;;;;5115449;28;20230;-74
2022/07/17 01:17:32;;;;;;;5.57;3.47;;;18.40;99.90;;;;;;5114085;28;20292;-76
2022/07/17 01:19:59;;;;;;;6.20;3.57;;;18.40;99.90;;;;;;5114785;28;20756;-76
2022/07/17 01:22:27;;;;;;;4.00;3.40;;;18.40;99.90;;;;;;5114478;28;20232;-75
2022/07/17 01:24:54;;;;;;;5.67;3.70;;;18.30;99.90;;;;;;5114440;28;20620;-75
2022/07/17 01:27:21;;;;;;;4.90;3.20;;;18.30;99.90;;;;;;5115061;28;20229;-75
2022/07/17 01:29:48;;;;;;;7.47;3.50;;;18.20;99.90;;;;;;5114526;28;20202;-75
2022/07/17 01:32:15;;;;;;;6.70;3.67;;;18.10;99.90;;;;;;5113896;28;20229;-74
2022/07/17 01:34:42;;;;;;;7.40;3.50;;;18.00;99.90;;;;;;5114038;28;20278;-75
2022/07/17 01:37:09;;;;;;;4.03;3.20;;;17.90;99.90;;;;;;5112837;28;20254;-75
2022/07/17 01:39:56;;;;;;;4.70;3.53;;;17.80;99.90;;;;;;5113928;28;20233;-75
2022/07/17 01:42:23;;;;;;;5.17;3.50;;;17.80;99.90;;;;;;5114167;28;20650;-75
2022/07/17 01:44:51;;;;;;;4.60;3.47;;;17.80;99.90;;;;;;5114140;28;20289;-75
2022/07/17 01:47:18;;;;;;;4.70;3.43;;;17.90;99.90;;;;;;5114302;28;20229;-74
2022/07/17 01:49:46;;;;;;;5.00;3.30;;;17.90;99.90;;;;;;5114214;28;20201;-75
2022/07/17 01:52:13;;;;;;;6.87;3.20;;;17.90;99.90;;;;;;5113808;28;20261;-75
2022/07/17 01:54:42;;;;;;;6.70;3.37;;;18.00;99.90;;;;;;5114482;28;20275;-76
2022/07/17 01:57:10;;;;;;;7.00;3.50;;;18.10;99.90;;;;;;5114425;28;20241;-75
2022/07/17 01:59:38;;;;;;;4.13;3.30;;;18.10;99.90;;;;;;5114461;28;20232;-76
2022/07/17 02:02:06;;;;;;;3.63;3.10;;;18.20;99.90;;;;;;5113972;28;20253;-75
2022/07/17 02:04:33;;;;;;;5.63;3.10;;;18.20;99.90;;;;;;5114303;28;20589;-75
2022/07/17 02:07:00;;;;;;;7.50;3.43;;;18.20;99.90;;;;;;5113242;28;20293;-74
2022/07/17 02:09:27;;;;;;;4.50;3.13;;;18.20;99.90;;;;;;5114250;28;20610;-74
2022/07/17 02:11:55;;;;;;;4.77;3.40;;;18.20;99.90;;;;;;5113732;27;20233;-75
2022/07/17 02:14:22;;;;;;;5.60;3.03;;;18.20;99.90;;;;;;5113683;28;20570;-75
2022/07/17 02:16:49;;;;;;;4.40;3.30;;;18.20;99.90;;;;;;5113564;28;20284;-75
2022/07/17 02:19:17;;;;;;;6.23;3.07;;;18.20;99.90;;;;;;5113104;28;20232;-75
2022/07/17 02:21:43;;;;;;;8.23;3.30;;;18.20;99.90;;;;;;5112644;28;20268;-74
2022/07/17 02:24:11;;;;;;;5.80;3.90;;;18.20;99.90;;;;;;5113080;28;20291;-75
2022/07/17 02:26:37;;;;;;;3.90;3.10;;;18.30;99.90;;;;;;5113614;28;20229;-75
2022/07/17 02:29:06;;;;;;;4.30;3.00;;;18.30;99.90;;;;;;5112635;28;20241;-74
2022/07/17 02:31:33;;;;;;;6.23;2.80;;;18.30;99.90;;;;;;5113400;28;20632;-76
2022/07/17 02:34:00;;;;;;;4.40;3.13;;;18.30;99.90;;;;;;5112921;28;20240;-75
2022/07/17 02:36:27;;;;;;;4.20;2.73;;;18.20;99.90;;;;;;5113020;28;20625;-75
2022/07/17 02:38:54;;;;;;;4.07;3.00;;;18.20;99.90;;;;;;5113894;28;20198;-74
2022/07/17 02:41:21;;;;;;;4.87;2.90;;;18.20;99.90;;;;;;5113042;28;20304;-74
2022/07/17 02:43:48;;;;;;;5.67;2.77;;;18.20;99.90;;;;;;5112891;28;20240;-75
2022/07/17 02:46:16;;;;;;;4.60;3.00;;;18.10;99.90;;;;;;5113571;28;20282;-75
2022/07/17 02:48:43;;;;;;;4.17;2.90;;;18.10;99.90;;;;;;5113202;28;20625;-76
2022/07/17 02:51:11;;;;;;;3.80;2.93;;;18.10;99.90;;;;;;5100443;28;20776;-75
2022/07/17 02:53:38;;;;;;;6.03;2.97;;;18.10;99.90;;;;;;5111229;28;20232;-75
2022/07/17 02:56:05;;;;;;;3.10;2.80;;;18.20;99.90;;;;;;5113529;28;20237;-75
2022/07/17 02:58:33;;;;;;;7.63;3.30;;;18.30;99.90;;;;;;5110703;28;20237;-75
2022/07/17 03:01:00;;;;;;;7.30;3.17;;;18.30;99.90;;;;;;5112983;28;20240;-75
2022/07/17 03:03:29;;;;;;;4.60;3.07;;;18.30;99.90;;;;;;5112019;28;20308;-75
2022/07/17 03:05:56;;;;;;;4.37;2.60;;;18.40;99.90;;;;;;5111184;28;20240;-75
2022/07/17 03:08:22;;;;;;;6.13;3.23;;;18.30;99.90;;;;;;5105242;28;20230;-75
2022/07/17 03:10:49;;;;;;;4.10;3.00;;;18.30;99.90;;;;;;5092912;28;20277;-74
2022/07/17 03:13:16;;;;;;;5.37;3.00;;;18.20;99.90;;;;;;5092613;28;20289;-75
2022/07/17 03:15:43;;;;;;;3.47;3.00;;;18.20;99.90;;;;;;5102834;28;20237;-75
2022/07/17 03:18:10;;;;;;;4.67;2.80;;;18.10;99.90;;;;;;5112274;28;20248;-74
2022/07/17 03:20:38;;;;;;;3.97;3.00;;;18.00;99.90;;;;;;5111948;28;20254;-75
2022/07/17 03:23:05;;;;;;;4.90;3.03;;;18.10;99.90;;;;;;5113162;28;20286;-75
2022/07/17 03:25:32;;;;;;;6.40;3.00;;;18.10;99.90;;;;;;5113036;28;20237;-74
2022/07/17 03:28:00;;;;;;;4.40;2.97;;;18.00;99.90;;;;;;5112372;28;20255;-75
2022/07/17 03:30:27;;;;;;;6.10;2.70;;;18.00;99.90;;;;;;5112657;28;20288;-75
2022/07/17 03:32:54;;;;;;;3.40;3.07;;;18.00;99.90;;;;;;5112450;28;20277;-76
2022/07/17 03:35:21;;;;;;;3.23;2.67;;;18.00;99.90;;;;;;5112668;28;20233;-75
2022/07/17 03:37:49;;;;;;;6.77;2.90;;;18.10;99.90;;;;;;5111861;28;20202;-75
2022/07/17 03:40:16;;;;;;;3.17;2.47;;;18.10;99.90;;;;;;5113001;28;20233;-75
2022/07/17 03:42:43;;;;;;;5.97;3.77;;;18.10;99.90;;;;;;5112507;28;20263;-75
2022/07/17 03:45:11;;;;;;;4.97;2.90;;;18.10;99.90;;;;;;5112550;28;20732;-75
2022/07/17 03:47:38;;;;;;;3.23;2.57;;;18.10;99.90;;;;;;5112567;28;20240;-75
2022/07/17 03:50:06;;;;;;;4.20;3.00;;;18.10;99.90;;;;;;5111984;28;20241;-75
2022/07/17 03:52:32;;;;;;;5.17;3.10;;;18.10;99.90;;;;;;5111809;28;20264;-74
2022/07/17 03:55:01;;;;;;;3.17;2.70;;;18.20;99.90;;;;;;5112007;28;20202;-75
2022/07/17 03:57:28;;;;;;;3.40;2.70;;;18.10;99.90;;;;;;5112344;28;20229;-75
2022/07/17 03:59:55;;;;;;;5.40;2.90;;;18.10;99.90;;;;;;5112317;28;20285;-75
2022/07/17 04:02:22;;;;;;;5.73;2.70;;;18.20;99.90;;;;;;5112212;28;20221;-75
2022/07/17 04:04:49;;;;;;;4.07;2.57;;;18.10;99.90;;;;;;5112256;28;20229;-75
2022/07/17 04:07:28;;;;;;;4.13;2.70;;;18.10;99.90;;;;;;5112219;28;20233;-76
2022/07/17 04:09:57;;;;;;;3.67;2.63;;;18.00;99.90;;;;;;5093927;28;20295;-75
2022/07/17 04:12:25;;;;;;;3.37;2.77;;;18.00;99.90;;;;;;5111772;28;20217;-75
2022/07/17 04:14:52;;;;;;;5.23;3.00;;;18.00;99.90;;;;;;5112612;28;20230;-76
2022/07/17 04:17:19;;;;;;;3.90;2.90;;;18.00;99.90;;;;;;5112026;28;20225;-74
2022/07/17 04:19:46;;;;;;;4.43;2.60;;;18.00;99.90;;;;;;5111837;28;20293;-75
2022/07/17 04:22:13;;;;;;;3.63;2.63;;;18.00;99.90;;;;;;5111973;28;20249;-75
2022/07/17 04:24:40;;;;;;;5.27;2.90;;;18.00;99.90;;;;;;5111930;28;20244;-75
2022/07/17 04:27:08;;;;;;;5.13;2.70;;;17.90;99.90;;;;;;5112159;28;20284;-75
2022/07/17 04:29:36;;;;;;;5.73;2.80;;;17.80;99.90;;;;;;5114134;28;20233;-75
2022/07/17 04:32:03;;;;;;;4.07;2.60;;;17.80;99.90;;;;;;5115209;28;20240;-76
2022/07/17 04:34:32;;;;;;;3.40;2.50;;;17.80;99.90;;;;;;5115351;28;20248;-75
2022/07/17 04:36:59;;;;;;;4.20;2.80;;;17.80;99.90;;;;;;5115044;28;20225;-75
2022/07/17 04:39:26;;;;;;;5.67;2.77;;;17.90;99.90;;;;;;5115350;28;20205;-75
2022/07/17 04:41:53;;;;;;;3.90;2.40;;;17.80;99.90;;;;;;5115299;28;20226;-75
2022/07/17 04:44:20;;;;;;;3.83;2.50;;;17.70;99.90;;;;;;5115801;28;20303;-75
2022/07/17 04:46:49;;;;;;;8.27;2.97;;;17.70;99.90;;;;;;5115006;28;20202;-74
2022/07/17 04:49:16;;;;;;;5.73;2.80;;;17.80;99.90;;;;;;5115095;28;20607;-75
2022/07/17 04:51:43;;;;;;;4.23;2.50;;;17.80;99.90;;;;;;5114975;28;20748;-75
2022/07/17 04:54:10;;;;;;;3.60;2.57;;;17.80;99.90;;;;;;5115473;28;20284;-76
2022/07/17 04:56:37;;;;;;;5.33;2.83;;;17.80;99.90;;;;;;5115551;28;20284;-75
2022/07/17 04:59:04;;;;;;;3.60;2.80;;;17.80;99.90;;;;;;5114866;28;20703;-74
2022/07/17 05:01:31;;;;;;;4.47;2.47;;;17.80;99.90;;;;;;5115003;28;20229;-75
2022/07/17 05:03:59;;;;;;;2.77;2.50;;;18.00;99.90;;;;;;5115078;28;20284;-75
2022/07/17 05:06:26;;;;;;;4.07;2.80;;;18.10;99.90;;;;;;5114819;28;20700;-74
2022/07/17 05:08:53;;;;;;;4.53;2.67;;;18.10;99.90;;;;;;5115042;28;20233;-76
2022/07/17 05:11:20;;;;;;;3.47;2.93;;;18.20;99.90;;;;;;5114914;28;20240;-75
2022/07/17 05:13:47;;;;;;;3.67;2.60;;;18.30;99.90;;;;;;5114790;28;20233;-75
2022/07/17 05:16:14;;;;;;;3.97;2.57;;;18.40;99.90;;;;;;5114304;28;20251;-75
2022/07/17 05:18:41;;;;;;;4.60;2.70;;;18.40;99.90;;;;;;5114306;28;20282;-75
2022/07/17 05:21:09;;;;;;;4.93;2.53;;;18.50;99.90;;;;;;5114976;28;20194;-75
2022/07/17 05:23:36;;;;;;;4.40;2.60;;;18.50;99.90;;;;;;5114629;28;20198;-74
2022/07/17 05:26:03;;;;;;;4.90;2.37;;;18.60;99.90;;;;;;5114933;28;20292;-74
2022/07/17 05:28:30;;;;;;;4.40;2.50;;;18.70;99.90;;;;;;5114048;28;20288;-75
2022/07/17 05:30:57;;;;;;;6.13;2.50;;;18.80;99.90;;;;;;5113991;27;20630;-75
2022/07/17 05:33:24;;;;;;;5.93;2.90;;;18.90;99.90;;;;;;5114163;28;20202;-75
2022/07/17 05:35:51;;;;;;;5.80;2.70;;;19.00;99.90;;;;;;5114660;28;20305;-74
2022/07/17 05:38:19;;;;;;;3.30;2.57;;;19.30;99.90;;;;;;5114547;27;20280;-76
2022/07/17 05:40:46;;;;;;;3.13;2.57;;;19.60;99.90;;;;;;5114144;28;20233;-74
2022/07/17 05:43:13;;;;;;;2.50;2.30;;;19.70;99.90;;;;;;5113852;28;20328;-74
2022/07/17 05:45:40;;;;;;;4.33;2.60;;;20.00;99.90;;;;;;5114180;28;20344;-75
2022/07/17 05:48:07;;;;;;;4.63;2.47;;;20.10;99.90;;;;;;5113918;28;20284;-75
2022/07/17 05:50:35;;;;;;;6.28;2.83;;;20.40;99.90;;;;;;5113466;28;20310;-76
2022/07/17 05:53:02;;;;;;;3.28;2.80;;;20.60;99.90;;;;;;5113646;28;20282;-75
2022/07/17 05:55:30;;;;;;;3.75;2.60;;;21.00;99.90;;;;;;5113964;28;20233;-75
2022/07/17 05:57:57;;;;;;;3.08;2.25;;;21.30;99.90;;;;;;5113162;28;20277;-75
2022/07/17 06:00:24;;;;;;;2.72;2.30;;;21.60;99.90;;;;;;5113425;28;20695;-76
2022/07/17 06:02:51;;;;;;;5.95;2.65;;;22.10;99.90;;;;;;5113964;28;20257;-75
2022/07/17 06:05:18;;;;;;;3.08;2.40;;;22.10;99.90;;;;;;5113598;28;20225;-74
2022/07/17 06:07:45;;;;;;;2.90;2.35;;;22.50;99.90;;;;;;5113486;28;20198;-75
2022/07/17 06:10:12;;;;;;;5.13;2.38;;;22.70;99.90;;;;;;5113479;28;20229;-75
2022/07/17 06:12:41;;;;;;;4.45;2.63;;;23.00;99.90;;;;;;5113829;28;20229;-75
2022/07/17 06:15:08;;;;;;;3.15;2.42;;;23.00;99.90;;;;;;5112637;28;20231;-75
2022/07/17 06:17:35;;;;;;;2.50;2.13;;;23.50;99.90;;;;;;5113638;28;20281;-75
2022/07/17 06:20:02;;;;;;;3.15;2.50;;;23.70;99.90;;;;;;5113454;28;20248;-76
2022/07/17 06:22:29;;;;;;;4.03;2.60;;;23.70;99.90;;;;;;5113208;28;20213;-75
2022/07/17 06:24:56;;;;;;;3.03;2.33;;;23.90;99.90;;;;;;5113455;28;20293;-75
2022/07/17 06:27:23;;;;;;;2.88;2.30;;;24.20;99.90;;;;;;5112672;28;20233;-76
2022/07/17 06:29:51;;;;;;;4.22;2.50;;;24.20;99.90;;;;;;5112986;28;20285;-75
2022/07/17 06:32:18;;;;;;;2.97;2.33;;;24.70;98.20;;;;;;5113045;28;20601;-76
2022/07/17 06:34:45;;;;;;;3.78;2.25;;;24.50;99.60;;;;;;5112961;28;20236;-76
2022/07/17 06:37:12;;;;;;;2.80;2.50;;;25.10;94.60;;;;;;5113007;28;20740;-76
2022/07/17 06:39:39;;;;;;;2.75;2.10;;;25.50;86.20;;;;;;5113273;28;20632;-75
2022/07/17 06:42:06;;;;;;;2.63;2.00;;;25.60;83.20;;;;;;5112887;28;20257;-76
2022/07/17 06:44:34;;;;;;;4.03;2.00;;;26.00;74.70;;;;;;5112333;28;20206;-75
2022/07/17 06:47:02;;;;;;;6.18;2.63;;;26.30;79.00;;;;;;5113569;28;20277;-75
2022/07/17 06:49:29;;;;;;;3.15;1.92;;;26.60;63.70;;;;;;5113054;28;20266;-73
2022/07/17 06:51:56;;;;;;;3.40;2.20;;;26.70;59.00;;;;;;5111978;28;20674;-75
2022/07/17 06:54:25;;;;;;;4.70;2.20;;;27.10;54.10;;;;;;5112274;28;20226;-76
2022/07/17 06:56:53;;;;;;;3.78;2.10;;;27.10;49.40;;;;;;5105284;28;20198;-75
2022/07/17 06:59:20;;;;;;;2.65;2.00;;;27.60;52.60;;;;;;5112363;28;20248;-76
2022/07/17 07:01:47;;;;;;;2.40;2.15;;;27.50;51.60;;;;;;5112538;28;20236;-75
2022/07/17 07:04:16;;;;;;;2.53;2.17;;;28.40;36.40;;;;;;5113237;28;20233;-76
2022/07/17 07:06:43;;;;;;;3.50;2.20;;;28.60;25.70;;;;;;5112935;28;20233;-76
2022/07/17 07:09:11;;;;;;;2.78;2.15;;;28.60;24.70;;;;;;5112876;28;20234;-76
2022/07/17 07:11:38;;;;;;;6.38;2.28;;;28.50;23.40;;;;;;5112357;28;20194;-76
2022/07/17 07:14:05;;;;;;;4.60;1.92;;;28.70;23.70;;;;;;5112566;28;20198;-75
2022/07/17 07:16:32;;;;;;;3.55;1.92;;;29.20;19.80;;;;;;5112483;28;20259;-76
2022/07/17 07:18:59;;;;;;;3.13;2.22;;;29.00;20.70;;;;;;5112769;28;20680;-76
2022/07/17 07:21:28;;;;;;;3.17;2.20;;;29.30;14.00;;;;;;5112480;28;20244;-75
2022/07/17 07:23:55;;;;;;;5.40;2.00;;;29.50;14.80;;;;;;5112015;28;20248;-76
2022/07/17 07:26:23;;;;;;;2.15;1.95;;;28.80;17.40;;;;;;5112640;28;20244;-75
2022/07/17 07:28:50;;;;;;;3.45;1.98;;;28.60;21.40;;;;;;5112631;28;20254;-75
2022/07/17 07:31:17;;;;;;;3.05;2.08;;;28.30;39.30;;;;;;5111368;28;20275;-75
2022/07/17 07:33:45;;;;;;;5.60;1.90;;;28.40;26.80;;;;;;5112424;28;20221;-75
2022/07/17 07:36:12;;;;;;;4.07;2.08;;;28.10;31.40;;;;;;5112588;28;20280;-75
2022/07/17 07:38:41;;;;;;;2.20;2.00;;;27.90;33.90;;;;;;5112276;28;20275;-75
2022/07/17 07:41:08;;;;;;;2.42;1.95;;;28.00;36.40;;;;;;5112138;28;20197;-75
2022/07/17 07:43:35;;;;;;;2.78;1.95;;;27.80;35.90;;;;;;5112497;28;20268;-75
2022/07/17 07:46:03;;;;;;;2.15;1.90;;;28.10;29.10;;;;;;5112221;28;20579;-75
2022/07/17 07:48:29;;;;;;;3.47;1.83;;;28.60;27.20;;;;;;5112429;28;20669;-75
2022/07/17 07:50:56;;;;;;;3.42;1.80;;;29.20;21.50;;;;;;5112307;28;20326;-75
2022/07/17 07:53:23;;;;;;;2.47;2.28;;;29.30;18.30;;;;;;5107720;28;20234;-75
2022/07/17 07:55:52;;;;;;;3.78;2.15;;;28.90;17.20;;;;;;5110866;28;20234;-75
2022/07/17 07:58:19;;;;;;;2.33;2.13;;;29.30;17.20;;;;;;5111753;28;20233;-75
2022/07/17 08:00:46;;;;;;;2.92;2.15;;;28.50;19.70;;;;;;5112293;28;20198;-74
2022/07/17 08:03:13;;;;;;;2.72;2.20;;;27.20;36.00;;;;;;5113522;28;20278;-76
2022/07/17 08:05:41;;;;;;;3.88;2.10;;;27.60;35.10;;;;;;5116491;28;20205;-76
2022/07/17 08:08:08;;;;;;;2.65;2.10;;;28.20;34.70;;;;;;5116452;28;20236;-75
2022/07/17 08:10:35;;;;;;;3.15;1.92;;;29.50;23.20;;;;;;5115853;28;20288;-76
2022/07/17 08:13:03;;;;;;;2.28;1.92;;;30.90;9.10;;;;;;5116554;27;20236;-75
2022/07/17 08:15:31;;;;;;;3.47;2.38;;;30.30;22.40;;;;;;5115571;28;20274;-75
2022/07/17 08:17:59;;;;;;;3.83;1.92;;;30.40;9.20;;;;;;5116074;28;20240;-75
2022/07/17 08:20:26;;;;;;;3.70;2.38;;;30.10;4.00;;;;;;5115389;28;20206;-76
2022/07/17 08:22:53;;;;;;;7.82;2.40;;;29.20;16.80;;;;;;5115907;28;20771;-75
2022/07/17 08:25:20;;;;;;;6.18;2.17;;;28.70;16.20;;;;;;5115416;28;20226;-76
2022/07/17 08:27:47;;;;;;;4.10;2.30;;;28.80;20.00;;;;;;5115968;28;20229;-75
2022/07/17 08:30:16;;;;;;;7.05;2.83;;;29.50;16.00;;;;;;5115626;28;20224;-76
2022/07/17 08:32:44;;;;;;;3.75;2.35;;;29.80;7.30;;;;;;5115020;28;20225;-76
2022/07/17 08:35:11;;;;;;;2.88;2.10;;;30.10;4.20;;;;;;5115630;28;20225;-76
2022/07/17 08:37:46;;;;;;;5.32;2.33;;;30.20;3.70;;;;;;5114941;28;20201;-76
2022/07/17 08:40:21;;;;;;;3.58;2.38;;;30.50;8.30;;;;;;5114313;28;20233;-76
2022/07/17 08:42:48;;;;;;;4.38;2.40;;;30.70;1.00;;;;;;5115529;28;20312;-75
2022/07/17 08:45:17;;;;;;;6.55;2.10;;;30.10;1.00;;;;;;5115476;28;20622;-76
2022/07/17 08:47:44;;;;;;;2.13;1.92;;;29.80;6.70;;;;;;5114708;28;20233;-76
2022/07/17 08:50:11;;;;;;;2.10;1.85;;;30.50;3.50;;;;;;5114796;28;20250;-75
2022/07/17 08:52:39;;;;;;;5.55;2.35;;;30.40;1.00;;;;;;5114637;28;20357;-76
2022/07/17 08:55:10;;;;;;;3.15;2.40;;;30.20;1.00;;;;;;5114369;28;20256;-76
2022/07/17 08:57:39;;;;;;;2.75;2.17;;;30.50;1.00;;;;;;5114284;27;20194;-77
2022/07/17 09:00:10;;;;;;;3.15;2.13;;;31.00;1.00;;;;;;5106789;28;20706;-76
2022/07/17 09:02:38;;;;;;;4.28;2.10;;;31.30;1.00;;;;;;5114808;28;20669;-76
2022/07/17 09:05:06;;;;;;;3.17;2.00;;;31.20;1.00;;;;;;5113694;28;20197;-75
2022/07/17 09:07:33;;;;;;;4.03;2.50;;;32.10;1.00;;;;;;5114136;28;20248;-76
2022/07/17 09:10:00;;;;;;;4.43;2.28;;;32.00;1.00;;;;;;5114300;28;20204;-76
2022/07/17 09:12:28;;;;;;;3.30;1.92;;;31.50;1.00;;;;;;5109912;28;20665;-76
2022/07/17 09:14:56;;;;;;;3.38;2.10;;;31.20;1.00;;;;;;5107150;28;20206;-75
2022/07/17 09:17:26;;;;;;;2.80;1.83;;;32.30;1.00;;;;;;5114686;28;20803;-76
2022/07/17 09:19:55;;;;;;;2.80;1.83;;;32.70;1.00;;;;;;5114702;28;20194;-76
2022/07/17 09:22:24;;;;;;;2.63;2.08;;;32.80;1.00;;;;;;5114673;28;20631;-75
2022/07/17 09:24:53;;;;;;;2.38;1.70;;;32.40;1.00;;;;;;5114630;28;20660;-75
2022/07/17 09:27:32;;;;;;;3.72;1.98;;;32.00;1.00;;;;;;5114232;28;20661;-76
2022/07/17 09:30:00;;;;;;;2.45;1.90;;;31.40;1.00;;;;;;5111386;28;20591;-75
2022/07/17 09:32:30;;;;;;;1.85;1.65;;;31.20;1.00;;;;;;5109538;28;20221;-76
2022/07/17 09:35:00;;;;;;;3.17;1.52;;;31.60;1.00;;;;;;5113562;28;20213;-76
2022/07/17 09:37:29;;;;;;;3.67;1.80;;;31.70;1.00;;;;;;5114372;27;20597;-74
2022/07/17 09:39:56;;;;;;;2.25;1.52;;;31.00;1.00;;;;;;5114079;28;20667;-76
2022/07/17 09:42:25;;;;;;;2.33;1.88;;;31.90;1.00;;;;;;5113416;28;20266;-75
2022/07/17 09:44:58;;;;;;;2.00;1.70;;;31.50;1.00;;;;;;5114061;28;20705;-76
2022/07/17 09:47:25;;;;;;;1.98;1.70;;;32.10;1.00;;;;;;5113526;28;20282;-74
2022/07/17 09:49:54;;;;;;;2.13;1.67;;;31.60;1.00;;;;;;5113864;28;20252;-75
2022/07/17 09:52:24;;;;;;;4.43;1.80;;;31.20;1.00;;;;;;5112837;28;20269;-75
2022/07/17 09:54:53;;;;;;;2.05;1.75;;;31.30;1.00;;;;;;5113319;28;20202;-75
2022/07/17 09:57:23;;;;;;;3.20;1.70;;;31.40;1.00;;;;;;5113634;28;20287;-75
2022/07/17 09:59:50;;;;;;;1.80;1.67;;;33.00;1.00;;;;;;5113255;28;20230;-74
2022/07/17 10:02:18;;;;;;;2.75;1.75;;;33.40;1.00;;;;;;5113319;28;20229;-75
2022/07/17 10:04:46;;;;;;;1.90;1.73;;;34.20;1.00;;;;;;5113942;28;20225;-75
2022/07/17 10:07:13;;;;;;;2.45;1.67;;;34.10;1.00;;;;;;5113013;28;20677;-74
2022/07/17 10:09:41;;;;;;;2.03;1.60;;;33.60;1.00;;;;;;5112252;28;20251;-75
2022/07/17 10:12:09;;;;;;;2.75;1.52;;;33.00;1.00;;;;;;5113509;28;20232;-75
2022/07/17 10:14:38;;;;;;;2.00;1.80;;;33.40;1.00;;;;;;5113140;28;20274;-74
2022/07/17 10:17:10;;;;;;;2.70;1.80;;;33.30;1.00;;;;;;5111278;28;20206;-74
2022/07/17 10:19:48;;;;;;;3.42;1.67;;;32.60;1.00;;;;;;5105591;28;20202;-74
2022/07/17 10:22:15;;;;;;;3.72;1.90;;;33.40;1.00;;;;;;5109115;28;20217;-74
2022/07/17 10:24:52;;;;;;;2.95;1.98;;;32.70;1.00;;;;;;5103139;28;20239;-75
2022/07/17 10:27:20;;;;;;;1.52;1.42;;;32.90;1.00;;;;;;5113382;28;20637;-75
2022/07/17 10:29:48;;;;;;;3.28;1.70;;;32.90;1.00;;;;;;5113144;28;20673;-75
2022/07/17 10:32:17;;;;;;;1.77;1.40;;;33.70;1.00;;;;;;5112577;28;20580;-74
2022/07/17 10:34:46;;;;;;;2.38;1.48;;;33.50;1.00;;;;;;5112851;28;20236;-73
2022/07/17 10:37:24;;;;;;;5.40;1.60;;;34.50;1.00;;;;;;5113439;28;20230;-75
2022/07/17 10:40:02;;;;;;;2.90;1.60;;;34.10;1.00;;;;;;5112716;28;20233;-75
2022/07/17 10:42:44;;;;;;;3.45;1.50;;;32.60;1.00;;;;;;5112998;28;20200;-75
2022/07/17 10:45:13;;;;;;;6.90;1.63;;;32.30;1.00;;;;;;5112402;28;20295;-75
2022/07/17 10:47:50;;;;;;;2.55;1.40;;;31.80;1.00;;;;;;5112885;28;20214;-74
2022/07/17 10:50:19;;;;;;;3.00;1.73;;;31.90;1.00;;;;;;5112359;28;20624;-75
2022/07/17 10:53:05;;;;;;;1.95;1.40;;;32.90;1.00;;;;;;5112967;28;20349;-75
2022/07/17 10:55:36;;;;;;;3.40;1.80;;;33.50;1.00;;;;;;5112559;28;20218;-75
2022/07/17 10:58:03;;;;;;;1.95;1.67;;;34.20;1.00;;;;;;5112839;28;20275;-74
2022/07/17 11:00:30;;;;;;;3.10;1.70;;;34.00;1.00;;;;;;5112850;28;20368;-75
2022/07/17 11:02:58;;;;;;;1.95;1.67;;;35.10;1.00;;;;;;5111090;28;20237;-75
2022/07/17 11:05:25;;;;;;;1.92;1.60;;;34.40;1.00;;;;;;5099465;28;20245;-75
2022/07/17 11:07:57;;;;;;;3.33;1.40;;;33.10;1.00;;;;;;5109681;28;20545;-74
2022/07/17 11:10:26;;;;;;;2.75;1.48;;;32.60;1.00;;;;;;5113270;28;20201;-74
2022/07/17 11:12:55;;;;;;;1.67;1.40;;;32.90;1.00;;;;;;5113247;28;20259;-74
2022/07/17 11:15:22;;;;;;;3.38;1.60;;;33.80;1.00;;;;;;5111310;28;20190;-74
2022/07/17 11:17:50;;;;;;;4.38;1.40;;;34.60;1.00;;;;;;5110009;28;20201;-74
2022/07/17 11:20:18;;;;;;;3.55;1.33;;;34.10;1.00;;;;;;5111579;28;20657;-73
2022/07/17 11:22:46;;;;;;;2.05;1.30;;;34.30;1.00;;;;;;5100469;28;20225;-74
2022/07/17 11:25:13;;;;;;;2.10;1.33;;;34.70;1.00;;;;;;5111740;28;20217;-74
2022/07/17 11:27:40;;;;;;;1.95;1.20;;;34.00;1.00;;;;;;5112076;28;20228;-75
2022/07/17 11:30:15;;;;;;;1.88;1.30;;;33.70;1.00;;;;;;5111837;28;20229;-74
2022/07/17 11:32:42;;;;;;;2.30;1.33;;;34.90;1.00;;;;;;5111789;28;20204;-74
2022/07/17 11:35:17;;;;;;;2.50;1.50;;;34.30;1.00;;;;;;5109462;28;20201;-75
2022/07/17 11:37:44;;;;;;;2.33;1.67;;;34.50;1.00;;;;;;5112343;28;20676;-75
2022/07/17 11:40:12;;;;;;;3.72;1.75;;;33.40;1.00;;;;;;5116614;28;20225;-75
2022/07/17 11:42:39;;;;;;;2.08;1.50;;;33.20;1.00;;;;;;5115957;28;20201;-74
2022/07/17 11:45:10;;;;;;;1.63;1.10;;;33.90;1.00;;;;;;5116546;28;20829;-75
2022/07/17 11:47:37;;;;;;;2.50;1.55;;;33.20;1.00;;;;;;5116172;28;20233;-75
2022/07/17 11:50:10;;;;;;;1.80;1.33;;;34.50;1.00;;;;;;5116311;28;20581;-75
2022/07/17 11:52:42;;;;;;;2.10;1.13;;;34.40;1.00;;;;;;5115225;28;20234;-75
2022/07/17 11:55:10;;;;;;;1.50;1.20;;;34.60;1.00;;;;;;5116578;27;20202;-75
2022/07/17 11:57:44;;;;;;;4.97;1.63;;;35.30;1.00;;;;;;5115875;28;20203;-75
2022/07/17 12:00:15;;;;;;;1.52;1.05;;;33.80;1.00;;;;;;5116697;28;20212;-75
2022/07/17 12:02:43;;;;;;;2.28;1.23;;;34.40;1.00;;;;;;5115861;28;20233;-75
2022/07/17 12:05:10;;;;;;;4.22;1.10;;;34.80;1.00;;;;;;5116460;28;20669;-74
2022/07/17 12:07:42;;;;;;;2.80;1.25;;;35.30;1.00;;;;;;5115974;28;20309;-75
2022/07/17 12:10:14;;;;;;;2.72;1.20;;;36.30;1.00;;;;;;5116578;28;20230;-75
2022/07/17 12:12:54;;;;;;;1.10;1.00;;;36.20;1.00;;;;;;5116469;28;20284;-74
2022/07/17 12:15:23;;;;;;;4.05;1.30;;;35.50;1.00;;;;;;5114996;28;20186;-75
2022/07/17 12:17:49;;;;;;;2.63;1.30;;;34.40;1.00;;;;;;5115637;27;20233;-75
2022/07/17 12:20:16;;;;;;;1.90;1.20;;;34.10;1.00;;;;;;5116074;28;20198;-74
2022/07/17 12:22:45;;;;;;;1.50;1.40;;;33.30;1.00;;;;;;5115944;28;20233;-74
2022/07/17 12:25:23;;;;;;;2.03;1.10;;;32.50;1.00;;;;;;5115915;28;20249;-75
2022/07/17 12:27:50;;;;;;;1.50;1.40;;;34.20;1.00;;;;;;5115917;28;20239;-75
2022/07/17 12:30:17;;;;;;;2.20;1.38;;;35.00;1.00;;;;;;5115673;28;20282;-75
2022/07/17 12:32:47;;;;;;;1.67;1.30;;;34.20;1.00;;;;;;5115869;28;20276;-75
2022/07/17 12:35:14;;;;;;;2.38;1.20;;;35.30;1.00;;;;;;5115652;28;20202;-75
2022/07/17 12:37:41;;;;;;;1.20;1.10;;;36.00;1.00;;;;;;5115513;28;20241;-75
2022/07/17 12:40:09;;;;;;;2.40;1.50;;;35.60;1.00;;;;;;5114957;28;20680;-74
2022/07/17 12:42:36;;;;;;;2.45;1.23;;;35.90;1.00;;;;;;5111174;28;20294;-75
2022/07/17 12:45:04;;;;;;;1.50;1.38;;;34.80;1.00;;;;;;5114458;28;20272;-75
2022/07/17 12:47:31;;;;;;;1.65;1.40;;;35.60;1.00;;;;;;5115108;28;20210;-75
2022/07/17 12:49:59;;;;;;;2.38;1.40;;;35.30;1.00;;;;;;5112943;28;20229;-75
2022/07/17 12:52:26;;;;;;;2.25;1.35;;;35.20;1.00;;;;;;5110234;28;20305;-75
2022/07/17 12:54:53;;;;;;;1.67;1.30;;;36.50;1.00;;;;;;5115010;28;20279;-74